Estació municipal de Cànoves i Samalús (Vallès Oriental, P.N.del Montseny)

Consulta les dades en temps real de l'estació municipal de Cànoves i Samalús





Hora UTC 21:25
Temperatura 13.5 ºC
Humitat 91.9 %
Pressió 1013.8 hPa
Pluja 0.4 mm
Velocitat vent 0.2 km/h
Direcció vent NE
Radiació solar 0.1 W/m²

Webcam

Dades diàries 2026-05-03



Hora UTC (hivern +1h; estiu +2h)
Temperatura (ºC) Humitat (%) Pressió (hPa) Velocitat vent (km/h) Precipitació (mm) Radiació solar (W/m²)
Hora UTC Aire Humitat Pressió Vel. Dir. Vel. Max Dir. Intent. màx 5 min. Rad. Sol.
00:05 14.4 84.4 1017.7 3.0 N 3.0 NNE 0.0 0.1
00:10 14.4 84.1 1017.6 3.3 NNW 4.9 NNW 0.0 0.1
00:15 14.4 84.2 1017.6 0.6 NNW 2.1 NNW 0.0 0.1
00:20 14.4 84.6 1017.6 1.7 NW 2.8 NW 0.0 0.1
00:25 14.5 85.2 1017.6 1.0 NW 2.5 NW 0.0 0.1
00:30 14.4 84.9 1017.5 0.8 NNE 2.1 NE 0.0 0.1
00:35 14.4 84.8 1017.4 0.0 NNE 0.0 NNE 0.0 0.1
00:40 14.4 84.7 1017.3 0.0 NNE 0.0 NNE 0.0 0.1
00:45 14.3 84.9 1017.2 0.1 NW 1.4 NW 0.0 0.1
00:50 14.4 85.7 1017.1 0.4 WNW 2.1 NW 0.0 0.1
00:55 14.5 86.0 1017.1 0.0 NNE 0.0 WNW 0.0 0.1
01:00 14.4 86.0 1017.0 2.6 SE 3.9 ESE 0.0 0.1
01:05 14.4 86.4 1017.1 2.3 SE 3.9 SE 0.0 0.1
01:10 14.5 87.0 1017.0 2.1 ESE 2.8 SE 0.0 0.1
01:15 14.5 86.9 1016.9 0.5 E 2.1 E 0.0 0.1
01:20 14.4 86.9 1016.9 0.0 NNE 0.0 E 0.0 0.1
01:25 14.4 87.2 1016.9 0.0 NNE 0.0 SSW 0.0 0.1
01:30 14.5 87.4 1016.8 0.0 NNE 0.0 SSW 0.0 0.1
01:35 14.4 87.3 1016.8 0.7 NE 2.5 NE 0.0 0.1
01:40 14.3 87.2 1016.6 1.0 NNE 3.2 NE 0.0 0.1
01:45 14.3 87.3 1016.5 1.2 NE 3.9 NE 0.0 0.1
01:50 14.3 87.7 1016.5 2.1 ENE 4.6 ENE 0.0 0.1
01:55 14.3 87.6 1016.5 0.6 SSE 2.5 ESE 0.0 0.1
02:00 14.3 88.2 1016.5 2.5 S 4.2 SSE 0.0 0.1
02:05 14.3 88.5 1016.5 0.6 S 2.1 S 0.0 0.1
02:10 14.2 88.5 1016.5 0.0 NNE 0.0 S 0.0 0.1
02:15 14.2 88.9 1016.5 0.0 NNE 0.0 S 0.0 0.1
02:20 14.2 89.3 1016.4 0.3 NW 1.4 NW 0.0 0.1
02:25 14.1 89.2 1016.4 0.0 NNE 0.0 NW 0.0 0.1
02:30 13.9 89.0 1016.4 0.0 NNE 0.0 NW 0.0 0.2
02:35 13.8 89.3 1016.4 0.0 NNE 0.0 NW 0.0 0.1
02:40 13.8 89.6 1016.4 1.0 N 4.2 N 0.0 0.1
02:45 13.7 89.6 1016.4 3.1 NNW 4.6 NNW 0.0 0.1
02:50 13.7 89.7 1016.4 2.4 N 4.6 NNW 0.0 0.1
02:55 13.7 89.1 1016.3 3.0 N 4.9 N 0.0 0.1
03:00 13.5 88.1 1016.3 2.6 NNW 5.3 NW 0.0 0.1
03:05 13.6 87.7 1016.3 3.0 N 4.9 NNE 0.0 0.1
03:10 13.6 86.0 1016.3 3.2 N 4.9 N 0.0 0.1
03:15 13.6 83.7 1016.2 3.7 N 5.6 NNW 0.0 0.1
03:20 13.7 82.2 1016.1 3.0 N 4.9 NNW 0.0 0.1
03:25 13.7 81.3 1016.0 2.0 NNW 3.9 N 0.0 0.1
03:30 13.7 81.3 1016.0 2.0 NNW 4.6 NNW 0.0 0.1
03:35 13.6 80.4 1015.9 1.5 N 4.6 N 0.0 0.1
03:40 13.5 80.0 1015.9 2.5 NW 5.3 NNW 0.0 0.1
03:45 13.5 79.8 1015.9 0.7 NW 2.1 NW 0.0 0.1
03:50 13.5 79.8 1015.9 0.9 NNW 5.3 N 0.0 0.1
03:55 13.5 79.7 1016.0 0.8 NW 2.8 NW 0.0 0.1
04:00 13.5 78.1 1016.0 2.8 N 6.4 NNW 0.0 0.1
04:05 13.7 74.2 1015.9 4.2 NNW 7.8 NNW 0.0 0.1
04:10 13.9 72.7 1015.8 2.3 N 6.0 NNW 0.0 0.1
04:15 14.0 72.9 1015.7 0.5 WNW 3.2 WNW 0.0 0.1
04:20 13.9 73.1 1015.7 0.3 W 2.1 WNW 0.0 0.1
04:25 13.8 73.8 1015.7 0.1 ENE 2.5 ENE 0.0 0.1
04:30 13.6 74.9 1015.7 1.9 NE 3.2 NE 0.0 0.3
04:35 13.4 76.0 1015.7 0.0 NNE 0.0 E 0.0 0.6
04:40 13.3 76.1 1015.6 0.4 SW 2.1 SSW 0.0 1.3
04:45 13.2 76.4 1015.6 0.0 NNE 0.0 WSW 0.0 2.2
04:50 13.1 76.6 1015.7 0.0 NNE 0.0 WSW 0.0 5.6
04:55 13.1 77.5 1015.8 0.5 WSW 2.8 W 0.0 9.8
05:00 13.1 78.4 1015.8 2.4 WNW 3.2 WNW 0.0 10.3
05:05 13.3 79.7 1015.8 3.0 NNW 4.2 NNW 0.0 11.2
05:10 13.4 80.4 1015.8 2.7 NNW 4.6 NNW 0.0 14.1
05:15 13.4 81.1 1015.8 2.7 NNW 3.5 NNW 0.0 18.8
05:20 13.5 82.2 1015.8 2.2 NNW 3.5 NNE 0.0 22.6
05:25 13.6 82.9 1015.9 1.6 NNW 3.2 0.0 27.4
05:30 13.6 83.4 1015.9 1.6 NNW 3.9 NNW 0.0 36.1
05:35 13.6 83.5 1015.9 0.0 NNE 0.0 NNW 0.0 43.9
05:40 13.7 83.6 1015.9 0.0 NNE 0.0 NNW 0.0 51.6
05:45 13.7 83.7 1016.0 0.0 NNE 0.0 N 0.0 65.9
05:50 13.8 84.6 1016.0 0.2 N 2.5 N 0.0 74.4
05:55 14.1 85.7 1016.0 1.5 N 3.9 NNW 0.0 95.9
06:00 14.3 85.7 1016.0 0.8 NNE 3.2 N 0.0 131.5
06:05 14.6 86.1 1015.9 2.9 NE 5.3 NE 0.0 118.2
06:10 14.7 86.3 1015.9 4.6 E 9.9 ESE 0.0 100.9
06:15 14.7 86.4 1015.9 4.1 NE 8.8 NE 0.0 105.8
06:20 14.7 86.3 1015.9 2.8 NE 6.0 NNE 0.0 111.1
06:25 14.8 86.4 1015.9 3.2 ENE 9.9 ENE 0.0 143.2
06:30 14.9 85.6 1015.9 2.2 NE 6.7 ENE 0.0 167.4
06:35 14.9 84.8 1015.9 5.5 E 9.9 ENE 0.0 168.3
06:40 15.1 84.3 1015.9 3.2 ENE 7.1 ENE 0.0 160.8
06:45 15.2 83.9 1015.9 3.7 ENE 8.5 ESE 0.0 163.8
06:50 15.2 83.5 1015.9 4.8 NE 9.5 ENE 0.0 189.4
06:55 15.1 84.2 1015.9 3.6 ENE 8.1 ENE 0.0 153.3
07:00 15.3 84.5 1015.9 3.9 ENE 7.1 ENE 0.0 141.6
07:05 15.2 84.2 1015.9 3.7 E 8.5 NNE 0.0 168.3
07:10 15.2 84.6 1015.9 4.5 ESE 8.8 ESE 0.0 172.0
07:15 15.2 84.7 1015.9 5.8 E 10.6 E 0.0 187.6
07:20 15.2 84.1 1015.8 3.9 ESE 8.8 ENE 0.0 203.4
07:25 15.4 84.6 1015.8 3.7 ESE 10.2 E 0.0 208.4
07:30 15.5 84.1 1015.8 4.8 E 8.8 ENE 0.0 206.5
07:35 15.4 82.9 1015.8 4.6 ESE 8.5 ESE 0.0 219.5
07:40 15.5 82.7 1015.7 5.3 E 10.2 E 0.0 224.5
07:45 15.5 82.0 1015.8 5.4 ESE 9.2 E 0.0 225.8
07:50 15.5 81.5 1015.8 5.7 ESE 10.2 E 0.0 211.4
07:55 15.5 81.6 1015.8 4.8 ENE 9.5 E 0.0 186.5
08:00 15.5 79.8 1015.7 3.3 NE 8.5 NE 0.0 196.9
08:05 15.7 79.7 1015.6 4.9 E 9.5 ENE 0.0 220.5
08:10 15.8 79.6 1015.6 5.5 E 10.2 E 0.0 254.7
08:15 15.8 79.3 1015.7 3.4 E 8.5 E 0.0 274.7
08:20 16.1 79.8 1015.7 5.3 SE 9.5 SE 0.0 370.1
08:25 16.2 79.4 1015.7 5.3 ESE 10.2 E 0.0 334.4
08:30 16.3 77.1 1015.8 2.9 ENE 6.7 ESE 0.0 250.2
08:35 16.5 76.7 1015.9 3.1 E 7.4 SE 0.0 306.6
08:40 16.5 75.3 1015.8 3.9 ENE 10.6 NE 0.0 248.4
08:45 16.5 75.9 1015.8 2.5 SE 7.1 SE 0.0 244.6
08:50 16.5 77.4 1015.9 4.3 SSE 7.1 S 0.0 248.7
08:55 16.6 78.3 1016.0 2.9 ESE 7.8 SE 0.0 234.1
09:00 16.6 76.6 1016.0 5.5 SE 10.2 SE 0.0 253.1
09:05 16.4 75.8 1016.0 5.0 ESE 8.1 SSE 0.0 283.9
09:10 16.5 74.9 1016.0 5.3 SSE 8.8 S 0.0 293.7
09:15 16.5 75.2 1016.0 4.0 SE 7.1 SE 0.0 303.8
09:20 16.7 76.4 1016.0 4.9 SSE 12.0 ESE 0.0 294.8
09:25 16.6 77.2 1016.1 7.0 SE 13.4 SSE 0.0 279.4
09:30 16.5 76.9 1016.1 4.1 S 7.8 S 0.0 264.2
09:35 16.5 76.6 1016.0 2.8 SSE 8.1 ESE 0.0 291.8
09:40 16.8 76.3 1016.0 5.1 ESE 11.3 SSE 0.0 369.7
09:45 16.8 75.9 1015.9 4.4 SSE 8.8 SSE 0.0 408.0
09:50 16.9 75.6 1016.0 7.4 SSE 14.5 SE 0.0 406.6
09:55 16.9 75.5 1016.1 5.1 SE 12.4 SSE 0.0 401.1
10:00 17.2 74.6 1016.1 6.7 SE 10.9 SE 0.0 321.5
10:05 17.0 74.0 1016.1 7.0 ESE 13.1 ESE 0.0 286.8
10:10 17.0 73.8 1016.1 4.9 SSE 9.5 SE 0.0 296.4
10:15 17.0 74.2 1016.1 7.0 E 13.1 SSE 0.0 346.4
10:20 17.1 74.3 1016.0 7.6 ESE 13.1 SE 0.0 422.7
10:25 17.4 73.2 1016.0 5.4 E 13.1 NE 0.0 456.1
10:30 17.4 72.8 1015.9 7.0 SE 13.1 ESE 0.0 338.0
10:35 17.2 74.0 1015.9 4.6 E 9.9 ESE 0.0 284.1
10:40 17.2 74.5 1015.9 8.1 ESE 15.2 ESE 0.0 275.2
10:45 17.0 76.0 1016.0 6.0 ESE 11.6 SE 0.0 301.5
10:50 17.0 77.0 1016.0 7.8 SE 12.0 E 0.0 246.5
10:55 16.8 75.7 1016.0 7.6 ESE 15.2 E 0.0 194.9
11:00 16.6 76.1 1015.8 6.2 ESE 11.6 SSE 0.0 232.1
11:05 16.7 75.7 1015.8 6.1 ESE 9.5 ENE 0.0 331.2
11:10 16.9 76.1 1015.7 6.5 ESE 12.7 ESE 0.0 382.5
11:15 17.4 74.8 1015.6 7.5 E 13.8 E 0.0 618.5
11:20 17.9 71.9 1015.6 4.7 ENE 9.2 ESE 0.0 514.2
11:25 18.0 70.3 1015.6 3.5 E 8.5 ESE 0.0 390.3
11:30 17.9 71.3 1015.5 6.1 SE 13.4 ESE 0.0 386.8
11:35 17.8 70.0 1015.5 5.8 ENE 12.4 ESE 0.0 508.4
11:40 18.0 70.9 1015.5 7.3 SE 14.5 SE 0.0 630.7
11:45 18.3 69.5 1015.4 6.9 ESE 15.2 E 0.0 736.1
11:50 18.7 68.4 1015.3 5.7 ESE 14.5 SE 0.0 623.0
11:55 18.5 68.0 1015.1 9.4 ESE 16.2 SE 0.0 602.9
12:00 18.4 68.1 1015.0 7.8 SE 21.5 SE 0.0 595.4
12:05 18.3 66.8 1015.0 10.6 SE 15.9 SE 0.0 437.1
12:10 18.2 68.0 1014.9 9.6 ESE 14.8 ESE 0.0 394.5
12:15 18.3 67.5 1014.9 7.9 ESE 16.9 ESE 0.0 360.3
12:20 18.1 68.0 1014.9 8.3 SE 14.1 SE 0.0 325.8
12:25 17.8 68.8 1014.9 5.3 ESE 9.2 E 0.0 345.3
12:30 18.1 68.9 1014.8 7.7 ESE 13.8 SE 0.0 386.1
12:35 18.3 68.1 1014.8 4.1 E 9.5 SE 0.0 309.7
12:40 18.4 67.2 1014.7 7.2 E 14.5 E 0.0 316.7
12:45 18.2 66.6 1014.6 8.1 E 13.4 ENE 0.0 289.3
12:50 18.2 67.0 1014.7 6.7 ESE 13.1 SE 0.0 199.0
12:55 17.7 67.4 1014.6 10.9 SE 16.9 SE 0.0 171.6
13:00 17.5 68.4 1014.7 7.5 SE 13.4 SE 0.0 157.5
13:05 17.4 69.5 1014.7 5.9 ESE 12.0 ESE 0.0 165.2
13:10 17.4 68.8 1014.8 7.7 ESE 10.6 ESE 0.0 188.9
13:15 17.4 68.4 1014.8 5.9 SSE 10.2 S 0.0 200.9
13:20 17.4 68.1 1014.7 6.3 ESE 9.9 ESE 0.0 223.6
13:25 17.7 66.6 1014.7 5.5 E 10.2 E 0.0 251.8
13:30 17.8 68.2 1014.6 7.6 SE 13.4 ESE 0.0 254.5
13:35 17.5 72.5 1014.5 7.0 SSE 11.6 SSE 0.0 268.3
13:40 17.6 73.1 1014.5 7.9 SSE 14.5 S 0.0 298.1
13:45 17.6 73.4 1014.5 9.8 SE 17.3 SE 0.0 460.4
13:50 17.9 73.6 1014.4 10.6 SE 18.4 ESE 0.0 703.1
13:55 18.4 72.9 1014.4 9.7 SSE 20.5 SSE 0.0 807.0
14:00 18.8 71.2 1014.1 8.7 SSE 15.2 S 0.0 753.6
14:05 18.7 69.9 1014.0 8.4 SE 18.0 ESE 0.0 766.1
14:10 18.7 70.4 1013.9 8.2 ESE 16.9 E 0.0 655.6
14:15 18.9 68.7 1013.7 8.8 ESE 15.5 E 0.0 601.2
14:20 18.7 68.4 1013.7 7.3 SE 20.5 SE 0.0 739.2
14:25 18.7 68.8 1013.5 9.0 SE 14.1 S 0.0 434.9
14:30 18.5 68.5 1013.5 8.7 SE 17.6 ESE 0.0 290.9
14:35 18.1 69.4 1013.4 10.4 SE 19.4 SE 0.0 331.7
14:40 17.8 69.4 1013.4 8.8 SE 13.1 SSE 0.0 307.7
14:45 17.7 70.4 1013.3 9.4 ESE 16.2 SE 0.0 266.0
14:50 17.8 69.6 1013.2 7.3 ESE 13.1 E 0.0 227.0
14:55 17.7 70.8 1013.1 6.5 ESE 13.8 ESE 0.0 190.6
15:00 17.6 71.2 1013.1 7.8 ESE 13.1 ESE 0.0 171.9
15:05 17.4 71.9 1013.0 10.0 SE 15.2 ESE 0.0 144.0
15:10 17.2 72.7 1013.1 9.4 SE 18.0 SE 0.0 117.9
15:15 17.0 73.4 1013.1 9.4 ESE 14.8 SSE 0.0 106.9
15:20 17.0 74.8 1013.1 9.5 ESE 14.8 E 0.0 95.0
15:25 16.7 76.5 1013.1 9.2 ESE 15.5 ESE 0.0 81.6
15:30 16.4 77.5 1013.2 9.3 ESE 15.9 SE 0.0 72.2
15:35 16.2 78.6 1013.3 8.4 ESE 13.4 SE 0.0 72.8
15:40 16.1 80.6 1013.3 6.2 E 12.0 E 0.0 59.6
15:45 16.0 82.1 1013.3 5.9 E 13.4 ENE 0.0 49.7
15:50 15.9 83.4 1013.4 5.1 E 10.6 E 0.0 49.6
15:55 15.7 84.3 1013.5 6.2 E 11.3 ENE 0.0 43.3
16:00 15.6 85.5 1013.6 3.3 E 8.1 E 0.1 38.8
16:05 15.5 85.8 1013.5 6.2 E 10.2 E 0.0 43.4
16:10 15.1 85.3 1013.6 4.9 ENE 9.9 ENE 0.0 34.6
16:15 14.9 85.1 1013.6 5.4 ENE 11.3 ENE 0.0 31.3
16:20 14.9 85.8 1013.5 2.9 NE 9.9 NNE 0.0 32.6
16:25 14.8 85.7 1013.4 4.0 NE 9.5 E 0.0 41.5
16:30 14.7 85.7 1013.4 4.4 NNE 12.7 NNE 0.0 42.1
16:35 14.7 85.7 1013.4 2.7 NE 9.2 NE 0.0 46.1
16:40 14.6 85.4 1013.4 5.1 NE 11.3 NE 0.0 48.6
16:45 14.5 85.3 1013.4 4.3 NNE 12.0 ENE 0.0 44.4
16:50 14.5 84.8 1013.4 4.2 NE 12.0 NE 0.0 35.8
16:55 14.5 85.0 1013.4 2.6 NE 6.7 ENE 0.0 42.3
17:00 14.5 85.2 1013.3 2.5 ENE 5.3 ENE 0.0 47.7
17:05 14.6 85.4 1013.4 2.4 ENE 9.5 ENE 0.0 43.8
17:10 14.6 85.0 1013.3 2.4 NE 7.1 ENE 0.0 38.8
17:15 14.6 85.0 1013.3 3.5 ENE 7.8 NE 0.0 38.4
17:20 14.6 84.9 1013.2 3.3 NE 8.5 NE 0.0 40.5
17:25 14.6 85.0 1013.3 1.9 NE 6.4 ENE 0.0 34.9
17:30 14.7 84.9 1013.2 3.3 NNE 8.8 NNE 0.0 35.1
17:35 14.7 84.6 1013.2 4.1 NNE 8.5 NNE 0.0 40.2
17:40 14.7 84.3 1013.3 1.8 NE 7.1 NNE 0.0 40.6
17:45 14.7 83.9 1013.2 3.9 NE 8.1 NE 0.0 38.4
17:50 14.7 83.7 1013.1 3.0 NE 10.6 NE 0.0 37.4
17:55 14.7 83.3 1013.2 4.5 NE 10.9 NE 0.0 30.1
18:00 14.7 83.4 1013.2 2.0 NE 5.6 NE 0.0 21.2
18:05 14.7 83.3 1013.2 2.6 NNE 7.1 NNE 0.0 13.7
18:10 14.7 83.1 1013.3 2.7 NE 9.2 NNE 0.0 9.1
18:15 14.7 83.0 1013.4 1.1 NE 4.2 ENE 0.0 5.8
18:20 14.7 83.0 1013.4 1.8 NE 3.2 NE 0.0 4.6
18:25 14.7 83.1 1013.3 1.5 NNE 4.9 E 0.0 4.6
18:30 14.7 83.0 1013.3 1.9 NNE 4.6 NNE 0.0 3.8
18:35 14.7 83.2 1013.3 2.1 NE 5.3 NE 0.0 3.0
18:40 14.6 83.2 1013.3 1.3 ENE 4.6 NE 0.0 1.8
18:45 14.6 83.3 1013.4 1.6 ENE 4.2 ENE 0.0 0.8
18:50 14.6 83.9 1013.5 2.1 ESE 4.6 ESE 0.0 0.3
18:55 14.6 84.9 1013.6 2.1 SE 3.9 ESE 0.0 0.3
19:00 14.5 85.6 1013.6 1.8 ENE 3.9 E 0.0 0.3
19:05 14.4 85.9 1013.6 1.2 E 4.2 ESE 0.0 0.2
19:10 14.4 86.4 1013.6 1.9 ESE 3.9 E 0.0 0.1
19:15 14.3 86.9 1013.6 1.5 NE 4.2 NE 0.0 0.1
19:20 14.3 87.2 1013.6 2.4 NNE 6.0 NE 0.0 0.1
19:25 14.3 87.7 1013.4 2.9 N 4.9 N 0.0 0.1
19:30 14.2 87.8 1013.4 2.7 N 6.7 NNW 0.0 0.1
19:35 14.2 87.8 1013.5 1.2 N 5.6 N 0.0 0.1
19:40 14.1 87.8 1013.6 0.6 NNW 2.8 NW 0.0 0.1
19:45 14.1 87.8 1013.6 1.8 NNW 3.5 NNW 0.0 0.1
19:50 14.1 87.9 1013.7 0.4 NW 2.5 WNW 0.0 0.1
19:55 14.1 87.9 1013.7 0.1 NW 1.4 NW 0.0 0.1
20:00 14.0 87.9 1013.8 0.0 NNE 0.0 NW 0.0 0.1
20:05 14.1 88.6 1013.9 1.3 ESE 2.5 SE 0.0 0.1
20:10 14.2 88.8 1013.9 0.0 NNE 0.0 E 0.0 0.1
20:15 14.1 88.7 1013.9 1.0 E 4.9 ENE 0.0 0.1
20:20 13.9 88.2 1014.0 2.2 E 5.6 ENE 0.0 0.1
20:25 13.9 88.5 1014.0 2.1 ENE 6.0 NE 0.0 0.1
20:30 13.9 88.6 1014.1 1.8 NE 4.6 ENE 0.0 0.1
20:35 13.8 88.7 1014.0 1.8 NE 6.4 NE 0.0 0.1
20:40 13.8 88.9 1014.0 1.1 NNW 4.2 NNW 0.1 0.1
20:45 13.7 89.1 1014.0 0.8 NNE 3.5 N 0.0 0.1
20:50 13.7 89.3 1013.9 0.8 NE 3.5 NNE 0.1 0.1
20:55 13.7 89.9 1013.8 0.9 NE 3.9 NE 0.0 0.1
21:00 13.6 90.7 1013.7 2.0 ENE 3.9 NE 0.0 0.1
21:05 13.5 91.0 1013.7 0.8 NNW 5.3 N 0.1 0.1
21:10 13.5 91.3 1013.7 1.9 NW 3.2 NNW 0.0 0.1
21:15 13.5 91.5 1013.7 0.9 NW 2.5 NW 0.0 0.1
21:20 13.5 91.7 1013.7 1.9 NW 4.9 NNW 0.0 0.1
21:25 13.5 91.9 1013.8 0.2 NE 1.8 NE 0.0 0.1
Màxima 18.9 91.9 1017.7 10.9 SE 21.5 SE 0.1 807.0
Mínima 13.1 66.6 1013.0
Total 0.4